createdAt,value
2019-04-14T00:00:11.945Z,88.73
2019-04-14T00:02:51.224Z,89.30
2019-04-14T00:05:28.209Z,89.10
2019-04-14T00:08:06.671Z,89.37
2019-04-14T00:10:44.241Z,88.71
2019-04-14T00:13:20.242Z,89.26
2019-04-14T00:15:56.618Z,89.53
2019-04-14T00:18:33.714Z,89.46
2019-04-14T00:21:10.786Z,89.34
2019-04-14T00:23:47.853Z,88.83
2019-04-14T00:26:29.560Z,89.05
2019-04-14T00:29:06.796Z,89.38
2019-04-14T00:31:43.332Z,89.20
2019-04-14T00:34:20.899Z,89.54
2019-04-14T00:36:58.842Z,89.41
2019-04-14T00:39:36.311Z,89.51
2019-04-14T00:42:25.871Z,89.18
2019-04-14T00:45:04.864Z,89.17
2019-04-14T00:47:51.688Z,89.62
2019-04-14T00:50:21.065Z,89.43
2019-04-14T00:52:57.141Z,89.23
2019-04-14T00:55:33.537Z,89.10
2019-04-14T00:58:10.366Z,89.01
2019-04-14T01:00:47.328Z,89.62
2019-04-14T01:03:24.431Z,89.59
2019-04-14T01:06:01.189Z,89.55
2019-04-14T01:08:38.101Z,88.24
2019-04-14T01:11:14.098Z,88.20
2019-04-14T01:13:50.832Z,89.38
2019-04-14T01:16:28.058Z,89.51
2019-04-14T01:19:04.778Z,88.69
2019-04-14T01:21:41.306Z,89.02
2019-04-14T01:24:18.469Z,89.53
2019-04-14T01:26:55.019Z,89.34
2019-04-14T01:29:31.974Z,89.46
2019-04-14T01:32:08.811Z,89.14
2019-04-14T01:34:45.541Z,89.36
2019-04-14T01:37:22.510Z,89.54
2019-04-14T01:39:58.837Z,88.97
2019-04-14T01:42:35.544Z,88.84
2019-04-14T01:45:14.200Z,88.61
2019-04-14T01:47:51.070Z,89.06
2019-04-14T01:53:33.544Z,88.40
2019-04-14T01:56:20.862Z,88.87
2019-04-14T01:59:04.587Z,88.74
2019-04-14T02:01:45.669Z,89.03
2019-04-14T02:04:22.397Z,88.85
2019-04-14T02:06:59.501Z,88.02
2019-04-14T02:09:35.777Z,88.84
2019-04-14T02:12:12.780Z,88.98
2019-04-14T02:14:49.513Z,88.57
2019-04-14T02:17:26.383Z,88.49
2019-04-14T02:20:03.350Z,88.39
2019-04-14T02:22:39.810Z,88.79
2019-04-14T02:25:16.564Z,88.83
2019-04-14T02:27:53.589Z,88.77
2019-04-14T02:30:36.632Z,88.07
2019-04-14T02:36:21.917Z,88.57
2019-04-14T02:41:27.866Z,89.04
2019-04-14T02:44:07.459Z,88.97
2019-04-14T02:46:47.944Z,88.20
2019-04-14T02:49:19.498Z,89.12
2019-04-14T02:51:56.353Z,88.58
2019-04-14T02:54:43.572Z,88.66
2019-04-14T02:57:26.821Z,89.01
2019-04-14T02:59:51.256Z,88.58
2019-04-14T03:02:30.474Z,88.33
2019-04-14T03:05:05.951Z,87.90
2019-04-14T03:07:46.720Z,88.88
2019-04-14T03:13:08.312Z,87.72
2019-04-14T03:15:39.638Z,88.83
2019-04-14T03:21:13.782Z,88.24
2019-04-14T03:23:57.997Z,88.13
2019-04-14T03:26:56.162Z,88.29
2019-04-14T03:29:43.288Z,88.24
2019-04-14T03:40:01.806Z,89.31
2019-04-14T03:48:16.832Z,88.93
2019-04-14T03:53:16.291Z,89.36
2019-04-14T03:55:55.353Z,89.17
2019-04-14T03:58:27.036Z,89.40
2019-04-14T04:01:04.043Z,88.71
2019-04-14T04:03:41.339Z,88.88
2019-04-14T04:06:18.120Z,88.77
2019-04-14T04:08:55.208Z,88.37
2019-04-14T04:11:32.277Z,88.74
2019-04-14T04:14:09.523Z,87.87
2019-04-14T04:16:55.055Z,88.22
2019-04-14T04:19:47.650Z,87.50
2019-04-14T04:22:28.194Z,88.12
2019-04-14T04:25:11.644Z,87.44
2019-04-14T04:28:05.985Z,87.96
2019-04-14T04:30:53.691Z,88.19
2019-04-14T04:33:31.048Z,88.09
2019-04-14T04:36:09.346Z,87.91
2019-04-14T04:39:01.877Z,87.51
2019-04-14T04:41:38.848Z,87.24
2019-04-14T04:44:15.795Z,87.08
2019-04-14T04:46:52.691Z,87.22
2019-04-14T04:49:30.529Z,87.72
2019-04-14T04:52:06.331Z,87.48
2019-04-14T04:54:42.852Z,87.87
2019-04-14T04:57:19.826Z,87.54
2019-04-14T04:59:56.130Z,87.30
2019-04-14T05:02:33.168Z,86.70
2019-04-14T05:05:45.089Z,87.21
2019-04-14T05:08:21.704Z,86.15
2019-04-14T05:10:59.097Z,86.57
2019-04-14T05:13:36.460Z,86.30
2019-04-14T05:16:12.775Z,86.28
2019-04-14T05:18:48.734Z,85.35
2019-04-14T05:21:25.547Z,86.23
2019-04-14T05:24:02.734Z,85.69
2019-04-14T05:26:39.458Z,84.70
2019-04-14T05:29:15.281Z,85.37
2019-04-14T05:31:51.207Z,85.19
2019-04-14T05:34:28.261Z,84.11
2019-04-14T05:37:05.002Z,84.36
2019-04-14T05:39:41.821Z,83.67
2019-04-14T05:42:20.238Z,84.18
2019-04-14T05:44:55.805Z,84.87
2019-04-14T05:47:32.609Z,83.35
2019-04-14T05:50:09.531Z,84.62
2019-04-14T05:52:45.413Z,83.30
2019-04-14T05:55:22.012Z,83.82
2019-04-14T05:57:59.099Z,83.35
2019-04-14T06:00:36.364Z,83.61
2019-04-14T06:03:12.441Z,83.46
2019-04-14T06:05:48.206Z,83.59
2019-04-14T06:08:23.998Z,83.07
2019-04-14T06:10:59.789Z,82.36
2019-04-14T06:13:35.608Z,81.45
2019-04-14T06:16:11.465Z,81.98
2019-04-14T06:18:47.322Z,80.75
2019-04-14T06:21:23.151Z,79.76
2019-04-14T06:23:58.935Z,81.95
2019-04-14T06:26:34.739Z,81.32
2019-04-14T06:29:11.562Z,79.45
2019-04-14T06:32:01.038Z,80.52
2019-04-14T06:34:38.531Z,77.99
2019-04-14T06:37:22.090Z,80.56
2019-04-14T06:39:59.556Z,80.86
2019-04-14T06:42:35.408Z,77.69
2019-04-14T06:45:12.285Z,79.39
2019-04-14T06:47:49.255Z,76.04
2019-04-14T06:50:25.113Z,77.18
2019-04-14T06:53:00.977Z,76.92
2019-04-14T06:55:36.821Z,74.98
2019-04-14T06:58:12.683Z,72.77
2019-04-14T07:00:48.530Z,73.79
2019-04-14T07:03:24.379Z,75.16
2019-04-14T07:06:00.299Z,71.91
2019-04-14T07:08:36.498Z,73.52
2019-04-14T07:11:12.366Z,74.17
2019-04-14T07:13:48.341Z,71.56
2019-04-14T07:16:24.265Z,70.99
2019-04-14T07:19:00.744Z,72.90
2019-04-14T07:21:36.598Z,69.89
2019-04-14T07:24:12.452Z,72.73
2019-04-14T07:26:48.266Z,73.69
2019-04-14T07:29:25.587Z,72.50
2019-04-14T07:32:19.094Z,71.02
2019-04-14T07:34:56.419Z,71.48
2019-04-14T07:37:36.586Z,70.68
2019-04-14T07:40:30.200Z,72.18
2019-04-14T07:43:07.531Z,71.14
2019-04-14T07:45:44.953Z,73.07
2019-04-14T07:48:25.088Z,71.75
2019-04-14T07:51:18.674Z,72.34
2019-04-14T07:53:58.678Z,71.44
2019-04-14T07:56:41.742Z,69.15
2019-04-14T07:59:19.076Z,69.83
2019-04-14T08:01:56.400Z,69.41
2019-04-14T08:04:33.734Z,69.12
2019-04-14T08:07:09.535Z,70.34
2019-04-14T08:09:45.319Z,68.80
2019-04-14T08:12:21.108Z,68.98
2019-04-14T08:14:56.900Z,67.90
2019-04-14T08:17:32.706Z,69.37
2019-04-14T08:20:08.940Z,69.14
2019-04-14T08:22:44.695Z,70.86
2019-04-14T08:25:20.434Z,71.38
2019-04-14T08:27:56.291Z,70.34
2019-04-14T08:30:32.751Z,68.36
2019-04-14T08:33:08.678Z,66.76
2019-04-14T08:35:44.440Z,64.23
2019-04-14T08:38:20.228Z,64.19
2019-04-14T08:40:55.974Z,64.63
2019-04-14T08:43:51.586Z,64.92
2019-04-14T08:46:29.092Z,64.50
2019-04-14T08:49:06.618Z,62.00
2019-04-14T08:51:43.963Z,61.71
2019-04-14T08:54:24.931Z,62.76
2019-04-14T08:57:02.345Z,63.96
2019-04-14T08:59:42.422Z,61.16
2019-04-14T09:02:29.202Z,63.29
2019-04-14T09:05:11.189Z,63.25
2019-04-14T09:07:51.557Z,62.56
2019-04-14T09:10:28.939Z,60.38
2019-04-14T09:13:04.801Z,62.06
2019-04-14T09:15:40.655Z,61.76
2019-04-14T09:18:16.498Z,62.07
2019-04-14T09:20:52.878Z,62.99
2019-04-14T09:23:28.936Z,61.27
2019-04-14T09:26:04.893Z,62.56
2019-04-14T09:28:41.833Z,60.87
2019-04-14T09:31:18.213Z,61.33
2019-04-14T09:33:54.016Z,59.31
2019-04-14T09:36:29.829Z,60.26
2019-04-14T09:39:07.194Z,55.23
2019-04-14T09:41:44.549Z,55.60
2019-04-14T09:44:20.421Z,55.21
2019-04-14T09:46:56.292Z,49.77
2019-04-14T09:49:32.511Z,52.66
2019-04-14T09:52:08.533Z,55.47
2019-04-14T09:54:44.322Z,54.59
2019-04-14T09:57:20.130Z,52.38
2019-04-14T10:00:00.388Z,56.18
2019-04-14T10:02:37.784Z,51.56
2019-04-14T10:05:13.581Z,49.01
2019-04-14T10:07:50.365Z,51.76
2019-04-14T10:10:26.243Z,50.03
2019-04-14T10:13:02.110Z,54.73
2019-04-14T10:15:37.915Z,50.94
2019-04-14T10:18:13.710Z,52.50
2019-04-14T10:20:49.524Z,53.53
2019-04-14T10:23:25.289Z,50.70
2019-04-14T10:26:01.060Z,51.11
2019-04-14T10:28:36.901Z,49.33
2019-04-14T10:31:12.694Z,53.62
2019-04-14T10:33:48.605Z,52.81
2019-04-14T10:36:24.424Z,53.83
2019-04-14T10:39:00.183Z,51.26
2019-04-14T10:41:37.478Z,54.06
2019-04-14T10:44:13.411Z,53.26
2019-04-14T10:46:49.258Z,52.85
2019-04-14T10:49:25.528Z,50.90
2019-04-14T10:52:01.489Z,53.34
2019-04-14T10:54:37.434Z,49.18
2019-04-14T10:57:13.388Z,52.75
2019-04-14T10:59:49.253Z,52.12
2019-04-14T11:02:25.098Z,51.18
2019-04-14T11:05:00.933Z,49.58
2019-04-14T11:07:37.111Z,50.34
2019-04-14T11:10:13.276Z,52.47
2019-04-14T11:12:49.282Z,48.61
2019-04-14T11:15:25.288Z,51.96
2019-04-14T11:18:01.255Z,51.19
2019-04-14T11:20:37.053Z,49.87
2019-04-14T11:23:12.815Z,47.55
2019-04-14T11:25:48.740Z,46.92
2019-04-14T11:28:24.503Z,45.62
2019-04-14T11:31:00.307Z,46.83
2019-04-14T11:33:53.762Z,47.36
2019-04-14T11:36:40.043Z,45.84
2019-04-14T11:39:22.344Z,48.32
2019-04-14T11:41:58.131Z,45.16
2019-04-14T11:44:33.878Z,46.15
2019-04-14T11:47:09.921Z,46.98
2019-04-14T11:49:45.898Z,46.76
2019-04-14T11:52:21.655Z,47.18
2019-04-14T11:54:57.433Z,48.55
2019-04-14T11:57:33.235Z,49.56
2019-04-14T12:00:26.694Z,49.49
2019-04-14T12:03:22.148Z,49.25
2019-04-14T12:06:17.368Z,48.63
2019-04-14T12:09:01.004Z,49.68
2019-04-14T12:11:38.303Z,47.68
2019-04-14T12:14:14.095Z,49.60
2019-04-14T12:16:49.937Z,48.77
2019-04-14T12:19:25.725Z,49.51
2019-04-14T12:22:08.074Z,48.56
2019-04-14T12:24:38.980Z,47.33
2019-04-14T12:27:14.821Z,49.48
2019-04-14T12:29:50.688Z,47.71
2019-04-14T12:32:27.044Z,45.28
2019-04-14T12:35:02.878Z,46.51
2019-04-14T12:37:38.766Z,45.87
2019-04-14T12:40:14.859Z,42.41
2019-04-14T12:42:58.311Z,44.21
2019-04-14T12:45:47.518Z,43.85
2019-04-14T12:48:40.280Z,46.18
2019-04-14T12:51:20.381Z,45.54
2019-04-14T12:53:55.246Z,45.58
2019-04-14T12:56:31.098Z,42.23
2019-04-14T12:59:08.499Z,42.27
2019-04-14T13:01:48.951Z,43.08
2019-04-14T13:04:24.815Z,42.24
2019-04-14T13:07:00.676Z,40.98
2019-04-14T13:09:36.512Z,40.49
2019-04-14T13:12:12.379Z,43.00
2019-04-14T13:14:48.223Z,43.23
2019-04-14T13:17:24.186Z,40.61
2019-04-14T13:20:00.026Z,40.86
2019-04-14T13:22:36.110Z,42.15
2019-04-14T13:25:12.157Z,40.46
2019-04-14T13:27:48.724Z,41.05
2019-04-14T13:30:26.123Z,40.52
2019-04-14T13:33:02.079Z,40.79
2019-04-14T13:35:38.124Z,37.37
2019-04-14T13:38:14.089Z,39.51
2019-04-14T13:40:49.945Z,39.07
2019-04-14T13:43:25.797Z,37.57
2019-04-14T13:46:01.651Z,37.05
2019-04-14T13:48:37.493Z,37.29
2019-04-14T13:51:13.350Z,38.41
2019-04-14T13:53:49.203Z,37.36
2019-04-14T13:56:25.167Z,37.10
2019-04-14T13:59:02.138Z,37.04
2019-04-14T14:01:38.094Z,36.41
2019-04-14T14:04:13.957Z,35.59
2019-04-14T14:06:49.798Z,34.78
2019-04-14T14:09:25.920Z,35.93
2019-04-14T14:12:19.515Z,33.84
2019-04-14T14:15:14.986Z,36.79
2019-04-14T14:18:08.488Z,35.73
2019-04-14T14:21:02.069Z,37.41
2019-04-14T14:23:45.513Z,35.78
2019-04-14T14:26:31.638Z,36.21
2019-04-14T14:29:08.460Z,34.78
2019-04-14T14:31:44.506Z,35.39
2019-04-14T14:34:20.392Z,38.04
2019-04-14T14:36:56.184Z,37.38
2019-04-14T14:39:31.985Z,36.95
2019-04-14T14:42:07.719Z,37.85
2019-04-14T14:44:47.901Z,35.97
2019-04-14T14:47:27.986Z,36.66
2019-04-14T14:50:08.434Z,37.90
2019-04-14T14:52:44.167Z,38.01
2019-04-14T14:55:19.930Z,40.07
2019-04-14T14:57:55.701Z,40.58
2019-04-14T15:00:34.814Z,41.34
2019-04-14T15:03:10.678Z,40.21
2019-04-14T15:05:46.505Z,40.65
2019-04-14T15:08:22.443Z,41.76
2019-04-14T15:10:58.240Z,39.40
2019-04-14T15:13:34.061Z,40.58
2019-04-14T15:16:09.918Z,40.28
2019-04-14T15:18:45.701Z,39.23
2019-04-14T15:21:21.546Z,40.64
2019-04-14T15:23:57.573Z,40.21
2019-04-14T15:26:33.846Z,41.82
2019-04-14T15:29:09.606Z,40.43
2019-04-14T15:31:45.450Z,42.16
2019-04-14T15:34:21.318Z,40.75
2019-04-14T15:36:57.119Z,41.00
2019-04-14T15:39:32.885Z,41.80
2019-04-14T15:42:08.656Z,38.62
2019-04-14T15:44:44.397Z,39.68
2019-04-14T15:47:20.365Z,39.59
2019-04-14T15:49:56.128Z,40.12
2019-04-14T15:52:31.921Z,39.69
2019-04-14T15:55:07.785Z,39.65
2019-04-14T15:57:45.157Z,37.97
2019-04-14T16:00:28.585Z,37.88
2019-04-14T16:03:21.929Z,39.42
2019-04-14T16:06:15.357Z,37.76
2019-04-14T16:09:02.121Z,38.70
2019-04-14T16:11:50.365Z,39.23
2019-04-14T16:14:30.729Z,38.47
2019-04-14T16:17:14.141Z,37.45
2019-04-14T16:19:57.677Z,38.01
2019-04-14T16:22:33.605Z,38.44
2019-04-14T16:25:09.864Z,38.96
2019-04-14T16:27:59.583Z,39.10
2019-04-14T16:30:52.872Z,38.43
2019-04-14T16:33:30.210Z,38.00
2019-04-14T16:36:06.812Z,38.04
2019-04-14T16:38:42.714Z,38.48
2019-04-14T16:41:20.272Z,37.64
2019-04-14T16:43:56.290Z,38.39
2019-04-14T16:46:32.103Z,38.53
2019-04-14T16:49:08.041Z,38.46
2019-04-14T16:51:51.366Z,38.20
2019-04-14T16:54:31.776Z,38.89
2019-04-14T16:57:25.371Z,38.97
2019-04-14T17:00:01.211Z,38.58
2019-04-14T17:02:38.073Z,38.16
2019-04-14T17:05:13.933Z,38.50
2019-04-14T17:07:49.852Z,37.98
2019-04-14T17:10:25.626Z,38.31
2019-04-14T17:13:01.439Z,36.53
2019-04-14T17:15:55.124Z,36.91
2019-04-14T17:18:41.313Z,37.63
2019-04-14T17:21:33.458Z,37.74
2019-04-14T17:24:16.770Z,37.97
2019-04-14T17:26:52.991Z,37.94
2019-04-14T17:29:42.442Z,37.81
2019-04-14T17:32:34.927Z,37.59
2019-04-14T17:35:18.371Z,37.40
2019-04-14T17:38:04.830Z,37.90
2019-04-14T17:40:45.140Z,37.55
2019-04-14T17:43:22.596Z,38.31
2019-04-14T17:46:02.689Z,38.05
2019-04-14T17:48:55.017Z,38.72
2019-04-14T17:51:38.067Z,38.61
2019-04-14T17:54:28.601Z,38.83
2019-04-14T17:57:13.677Z,39.27
2019-04-14T17:59:51.089Z,38.71
2019-04-14T18:02:31.582Z,39.45
2019-04-14T18:05:14.958Z,40.30
2019-04-14T18:07:52.757Z,40.45
2019-04-14T18:10:33.352Z,40.88
2019-04-14T18:13:30.099Z,41.37
2019-04-14T18:16:10.245Z,41.47
2019-04-14T18:21:39.981Z,42.63
2019-04-14T18:24:16.041Z,43.18
2019-04-14T18:26:51.900Z,42.37
2019-04-14T18:29:29.278Z,42.64
2019-04-14T18:32:06.679Z,42.70
2019-04-14T18:34:47.039Z,43.39
2019-04-14T18:37:24.539Z,43.86
2019-04-14T18:40:12.254Z,44.14
2019-04-14T18:42:50.169Z,44.55
2019-04-14T18:45:30.236Z,44.29
2019-04-14T18:48:08.229Z,44.55
2019-04-14T18:51:01.534Z,44.58
2019-04-14T18:53:50.712Z,44.36
2019-04-14T18:56:40.188Z,45.31
2019-04-14T18:59:23.545Z,44.42
2019-04-14T19:02:00.443Z,44.39
2019-04-14T19:04:37.199Z,44.62
2019-04-14T19:07:13.054Z,45.32
2019-04-14T19:09:48.917Z,45.44
2019-04-14T19:12:35.409Z,45.08
2019-04-14T19:15:22.537Z,45.22
2019-04-14T19:18:15.358Z,45.50
2019-04-14T19:20:52.782Z,45.93
2019-04-14T19:23:28.625Z,46.53
2019-04-14T19:26:04.683Z,47.39
2019-04-14T19:28:40.537Z,47.56
2019-04-14T19:31:16.391Z,47.43
2019-04-14T19:33:52.253Z,47.17
2019-04-14T19:36:28.211Z,47.71
2019-04-14T19:39:07.333Z,47.62
2019-04-14T19:41:43.405Z,47.30
2019-04-14T19:44:19.256Z,47.59
2019-04-14T19:46:55.157Z,47.85
2019-04-14T19:49:30.953Z,47.81
2019-04-14T19:52:06.811Z,47.48
2019-04-14T19:54:42.661Z,47.63
2019-04-14T19:57:18.535Z,47.95
2019-04-14T19:59:55.506Z,48.47
2019-04-14T20:02:31.360Z,48.68
2019-04-14T20:05:07.920Z,48.79
2019-04-14T20:07:43.898Z,49.01
2019-04-14T20:10:19.832Z,48.86
2019-04-14T20:12:55.799Z,48.71
2019-04-14T20:15:33.180Z,49.16
2019-04-14T20:18:10.681Z,49.06
2019-04-14T20:20:50.843Z,49.35
2019-04-14T20:23:31.801Z,49.52
2019-04-14T20:26:25.684Z,49.44
2019-04-14T20:29:12.386Z,49.84
2019-04-14T20:31:49.887Z,49.71
2019-04-14T20:34:25.732Z,49.84
2019-04-14T20:37:01.932Z,50.34
2019-04-14T20:39:37.861Z,50.75
2019-04-14T20:42:14.020Z,51.06
2019-04-14T20:44:49.864Z,51.12
2019-04-14T20:47:25.718Z,50.38
2019-04-14T20:50:01.881Z,50.28
2019-04-14T20:52:37.847Z,50.29
2019-04-14T20:55:13.997Z,50.03
2019-04-14T20:57:51.090Z,50.62
2019-04-14T21:00:27.051Z,50.88
2019-04-14T21:03:04.538Z,51.62
2019-04-14T21:05:41.928Z,51.56
2019-04-14T21:08:25.554Z,51.43
2019-04-14T21:11:03.018Z,51.50
2019-04-14T21:13:51.608Z,51.45
2019-04-14T21:16:40.253Z,50.77
2019-04-14T21:19:20.623Z,50.78
2019-04-14T21:22:10.096Z,50.37
2019-04-14T21:25:03.860Z,50.60
2019-04-14T21:27:56.610Z,50.64
2019-04-14T21:30:34.013Z,51.18
2019-04-14T21:33:14.154Z,51.35
2019-04-14T21:36:09.886Z,51.67
2019-04-14T21:39:03.456Z,51.31
2019-04-14T21:41:42.325Z,51.58
2019-04-14T21:44:18.121Z,51.84
2019-04-14T21:46:54.086Z,52.15
2019-04-14T21:49:29.875Z,52.66
2019-04-14T21:52:10.407Z,53.01
2019-04-14T21:54:46.758Z,53.20
2019-04-14T21:57:42.490Z,53.68
2019-04-14T22:00:22.954Z,53.53
2019-04-14T22:03:13.962Z,52.99
2019-04-14T22:06:08.034Z,52.56
2019-04-14T22:08:46.550Z,52.49
2019-04-14T22:11:27.113Z,52.26
2019-04-14T22:14:34.266Z,52.11
2019-04-14T22:17:23.913Z,52.03
2019-04-14T22:19:59.936Z,51.88
2019-04-14T22:22:35.789Z,51.97
2019-04-14T22:25:11.848Z,51.67
2019-04-14T22:27:47.718Z,51.45
2019-04-14T22:30:23.557Z,51.24
2019-04-14T22:32:59.412Z,51.11
2019-04-14T22:35:46.502Z,51.09
2019-04-14T22:38:50.252Z,50.94
2019-04-14T22:42:04.809Z,50.70
2019-04-14T22:44:40.682Z,50.79
2019-04-14T22:47:16.515Z,50.76
2019-04-14T22:49:52.370Z,50.68
2019-04-14T22:52:28.212Z,50.39
2019-04-14T22:55:05.201Z,50.44
2019-04-14T22:57:41.050Z,50.29
2019-04-14T23:00:27.154Z,50.32
2019-04-14T23:03:06.686Z,50.22
2019-04-14T23:05:46.947Z,50.36
2019-04-14T23:08:24.947Z,50.56
2019-04-14T23:11:11.549Z,50.62
2019-04-14T23:14:05.585Z,50.86
2019-04-14T23:16:59.405Z,51.08
2019-04-14T23:20:12.093Z,51.17
2019-04-14T23:29:55.562Z,51.30
2019-04-14T23:32:41.470Z,51.55
2019-04-14T23:35:47.803Z,51.37
2019-04-14T23:38:39.594Z,51.41
2019-04-14T23:41:44.458Z,51.51
2019-04-14T23:45:07.560Z,51.69
2019-04-14T23:51:19.817Z,51.74
2019-04-14T23:53:56.174Z,51.87
